sensor_id;sensor_type;location;lat;lon;timestamp;temperature;humidity
45315;SHT31;31051;51.540;5.852;2023-04-15T00:01:05;6.4;75.9
45315;SHT31;31051;51.540;5.852;2023-04-15T00:14:04;5.7;76.3
45315;SHT31;31051;51.540;5.852;2023-04-15T00:27:04;5.2;77.9
45315;SHT31;31051;51.540;5.852;2023-04-15T00:40:03;4.9;79.8
45315;SHT31;31051;51.540;5.852;2023-04-15T00:53:02;4.9;81.3
45315;SHT31;31051;51.540;5.852;2023-04-15T01:06:01;4.7;80.5
45315;SHT31;31051;51.540;5.852;2023-04-15T01:19:00;4.6;80.1
45315;SHT31;31051;51.540;5.852;2023-04-15T01:32:00;4.2;80.2
45315;SHT31;31051;51.540;5.852;2023-04-15T01:44:59;4.0;81.9
45315;SHT31;31051;51.540;5.852;2023-04-15T01:57:58;3.9;84.1
45315;SHT31;31051;51.540;5.852;2023-04-15T02:10:57;4.4;85.4
45315;SHT31;31051;51.540;5.852;2023-04-15T02:23:57;4.8;84.2
45315;SHT31;31051;51.540;5.852;2023-04-15T02:36:56;4.8;83.2
45315;SHT31;31051;51.540;5.852;2023-04-15T02:49:55;4.7;83.5
45315;SHT31;31051;51.540;5.852;2023-04-15T03:02:54;4.6;82.6
45315;SHT31;31051;51.540;5.852;2023-04-15T03:15:53;4.4;84.3
45315;SHT31;31051;51.540;5.852;2023-04-15T03:28:53;4.5;84.4
45315;SHT31;31051;51.540;5.852;2023-04-15T03:41:52;4.8;85.4
45315;SHT31;31051;51.540;5.852;2023-04-15T03:54:51;5.1;85.2
45315;SHT31;31051;51.540;5.852;2023-04-15T04:07:50;5.2;84.6
45315;SHT31;31051;51.540;5.852;2023-04-15T04:20:49;5.3;84.3
45315;SHT31;31051;51.540;5.852;2023-04-15T04:33:49;5.2;84.8
45315;SHT31;31051;51.540;5.852;2023-04-15T04:46:48;5.0;84.9
45315;SHT31;31051;51.540;5.852;2023-04-15T04:59:47;5.0;86.1
45315;SHT31;31051;51.540;5.852;2023-04-15T05:12:46;4.9;85.9
45315;SHT31;31051;51.540;5.852;2023-04-15T05:25:46;5.0;86.7
45315;SHT31;31051;51.540;5.852;2023-04-15T05:38:45;5.2;86.5
45315;SHT31;31051;51.540;5.852;2023-04-15T05:51:44;5.6;86.5
45315;SHT31;31051;51.540;5.852;2023-04-15T06:04:43;6.0;86.1
45315;SHT31;31051;51.540;5.852;2023-04-15T06:17:43;6.3;85.5
45315;SHT31;31051;51.540;5.852;2023-04-15T06:30:42;6.6;84.4
45315;SHT31;31051;51.540;5.852;2023-04-15T06:43:41;7.0;83.3
45315;SHT31;31051;51.540;5.852;2023-04-15T06:56:40;7.7;82.8
45315;SHT31;31051;51.540;5.852;2023-04-15T07:09:40;8.3;81.0
45315;SHT31;31051;51.540;5.852;2023-04-15T07:22:39;9.0;78.1
45315;SHT31;31051;51.540;5.852;2023-04-15T07:35:38;9.6;75.3
45315;SHT31;31051;51.540;5.852;2023-04-15T07:48:37;9.6;75.3
45315;SHT31;31051;51.540;5.852;2023-04-15T08:01:37;10.1;75.0
45315;SHT31;31051;51.540;5.852;2023-04-15T08:14:36;10.2;72.9
45315;SHT31;31051;51.540;5.852;2023-04-15T08:27:35;10.7;71.3
45315;SHT31;31051;51.540;5.852;2023-04-15T08:40:35;11.3;67.9
45315;SHT31;31051;51.540;5.852;2023-04-15T08:53:34;12.0;65.4
45315;SHT31;31051;51.540;5.852;2023-04-15T09:06:33;11.8;67.4
45315;SHT31;31051;51.540;5.852;2023-04-15T09:19:33;11.8;65.9
45315;SHT31;31051;51.540;5.852;2023-04-15T09:32:32;12.5;64.1
45315;SHT31;31051;51.540;5.852;2023-04-15T09:45:31;12.8;62.4
45315;SHT31;31051;51.540;5.852;2023-04-15T09:58:31;12.3;62.4
45315;SHT31;31051;51.540;5.852;2023-04-15T10:11:30;12.5;62.3
45315;SHT31;31051;51.540;5.852;2023-04-15T10:24:29;12.2;62.5
45315;SHT31;31051;51.540;5.852;2023-04-15T10:37:29;12.7;62.9
45315;SHT31;31051;51.540;5.852;2023-04-15T10:50:28;12.9;60.1
45315;SHT31;31051;51.540;5.852;2023-04-15T11:03:27;13.2;60.4
45315;SHT31;31051;51.540;5.852;2023-04-15T11:16:27;13.1;61.6
45315;SHT31;31051;51.540;5.852;2023-04-15T11:29:26;14.0;59.5
45315;SHT31;31051;51.540;5.852;2023-04-15T11:42:25;13.6;57.8
45315;SHT31;31051;51.540;5.852;2023-04-15T11:55:24;14.4;56.3
45315;SHT31;31051;51.540;5.852;2023-04-15T12:08:13;14.4;56.9
45315;SHT31;31051;51.540;5.852;2023-04-15T12:21:12;14.3;58.4
45315;SHT31;31051;51.540;5.852;2023-04-15T12:34:12;14.9;55.4
45315;SHT31;31051;51.540;5.852;2023-04-15T12:47:11;14.6;53.9
45315;SHT31;31051;51.540;5.852;2023-04-15T13:00:11;14.2;56.3
45315;SHT31;31051;51.540;5.852;2023-04-15T13:13:10;14.4;55.6
45315;SHT31;31051;51.540;5.852;2023-04-15T13:26:09;14.6;54.9
45315;SHT31;31051;51.540;5.852;2023-04-15T13:39:09;14.7;53.5
45315;SHT31;31051;51.540;5.852;2023-04-15T13:52:08;14.2;53.7
45315;SHT31;31051;51.540;5.852;2023-04-15T14:05:07;13.7;57.6
45315;SHT31;31051;51.540;5.852;2023-04-15T14:18:07;13.4;57.1
45315;SHT31;31051;51.540;5.852;2023-04-15T14:31:06;13.6;58.0
45315;SHT31;31051;51.540;5.852;2023-04-15T14:44:06;13.6;56.2
45315;SHT31;31051;51.540;5.852;2023-04-15T14:57:05;13.6;57.6
45315;SHT31;31051;51.540;5.852;2023-04-15T15:10:04;13.3;58.6
45315;SHT31;31051;51.540;5.852;2023-04-15T15:23:04;13.3;56.5
45315;SHT31;31051;51.540;5.852;2023-04-15T15:36:03;12.9;61.3
45315;SHT31;31051;51.540;5.852;2023-04-15T15:49:02;12.0;64.1
45315;SHT31;31051;51.540;5.852;2023-04-15T16:02:02;11.5;65.9
45315;SHT31;31051;51.540;5.852;2023-04-15T16:15:01;11.2;67.1
45315;SHT31;31051;51.540;5.852;2023-04-15T16:28:00;11.1;68.0
45315;SHT31;31051;51.540;5.852;2023-04-15T16:40:59;10.8;69.8
45315;SHT31;31051;51.540;5.852;2023-04-15T16:53:59;10.7;71.2
45315;SHT31;31051;51.540;5.852;2023-04-15T17:06:58;10.7;71.1
45315;SHT31;31051;51.540;5.852;2023-04-15T17:19:57;10.4;72.2
45315;SHT31;31051;51.540;5.852;2023-04-15T17:32:57;10.2;71.6
45315;SHT31;31051;51.540;5.852;2023-04-15T17:45:56;9.9;74.5
45315;SHT31;31051;51.540;5.852;2023-04-15T17:58:55;9.8;74.4
45315;SHT31;31051;51.540;5.852;2023-04-15T18:11:55;9.5;75.5
45315;SHT31;31051;51.540;5.852;2023-04-15T18:24:54;9.4;76.5
45315;SHT31;31051;51.540;5.852;2023-04-15T18:37:53;9.0;78.6
45315;SHT31;31051;51.540;5.852;2023-04-15T18:50:52;9.0;79.0
45315;SHT31;31051;51.540;5.852;2023-04-15T19:03:52;8.6;82.6
45315;SHT31;31051;51.540;5.852;2023-04-15T19:16:51;8.3;84.0
45315;SHT31;31051;51.540;5.852;2023-04-15T19:29:50;8.2;84.5
45315;SHT31;31051;51.540;5.852;2023-04-15T19:42:50;8.1;85.2
45315;SHT31;31051;51.540;5.852;2023-04-15T19:55:49;8.1;85.2
45315;SHT31;31051;51.540;5.852;2023-04-15T20:08:48;8.0;85.4
45315;SHT31;31051;51.540;5.852;2023-04-15T20:21:47;8.1;86.0
45315;SHT31;31051;51.540;5.852;2023-04-15T20:34:47;7.9;87.0
45315;SHT31;31051;51.540;5.852;2023-04-15T20:47:46;7.8;87.8
45315;SHT31;31051;51.540;5.852;2023-04-15T21:00:45;7.8;87.9
45315;SHT31;31051;51.540;5.852;2023-04-15T21:13:44;7.9;87.6
45315;SHT31;31051;51.540;5.852;2023-04-15T21:26:44;7.9;87.3
45315;SHT31;31051;51.540;5.852;2023-04-15T21:39:43;8.0;87.0
45315;SHT31;31051;51.540;5.852;2023-04-15T21:52:42;8.0;86.8
45315;SHT31;31051;51.540;5.852;2023-04-15T22:05:41;8.0;87.2
45315;SHT31;31051;51.540;5.852;2023-04-15T22:18:41;8.1;87.0
45315;SHT31;31051;51.540;5.852;2023-04-15T22:31:40;8.2;87.0
45315;SHT31;31051;51.540;5.852;2023-04-15T22:44:39;8.2;86.1
45315;SHT31;31051;51.540;5.852;2023-04-15T22:57:39;8.3;85.8
45315;SHT31;31051;51.540;5.852;2023-04-15T23:10:38;8.3;86.0
45315;SHT31;31051;51.540;5.852;2023-04-15T23:23:37;8.3;86.4
45315;SHT31;31051;51.540;5.852;2023-04-15T23:36:36;8.4;86.9
45315;SHT31;31051;51.540;5.852;2023-04-15T23:49:36;8.3;87.1
